sensor_id;sensor_type;location;lat;lon;timestamp;P1;durP1;ratioP1;P2;durP2;ratioP2
18336;SDS011;9294;51.106;7.028;2023-07-13T00:02:21;1.40;;;1.40;;
18336;SDS011;9294;51.106;7.028;2023-07-13T00:04:49;1.00;;;1.00;;
18336;SDS011;9294;51.106;7.028;2023-07-13T00:07:17;1.75;;;1.30;;
18336;SDS011;9294;51.106;7.028;2023-07-13T00:09:45;1.23;;;1.23;;
18336;SDS011;9294;51.106;7.028;2023-07-13T00:12:21;1.08;;;1.08;;
18336;SDS011;9294;51.106;7.028;2023-07-13T00:14:49;1.48;;;1.48;;
18336;SDS011;9294;51.106;7.028;2023-07-13T00:17:16;1.00;;;1.00;;
18336;SDS011;9294;51.106;7.028;2023-07-13T00:19:43;1.58;;;1.50;;
18336;SDS011;9294;51.106;7.028;2023-07-13T00:22:12;1.38;;;1.27;;
18336;SDS011;9294;51.106;7.028;2023-07-13T00:24:39;1.15;;;1.08;;
18336;SDS011;9294;51.106;7.028;2023-07-13T00:27:07;1.58;;;1.50;;
18336;SDS011;9294;51.106;7.028;2023-07-13T00:29:34;1.52;;;1.42;;
18336;SDS011;9294;51.106;7.028;2023-07-13T00:32:01;1.48;;;1.38;;
18336;SDS011;9294;51.106;7.028;2023-07-13T00:34:28;1.23;;;1.23;;
18336;SDS011;9294;51.106;7.028;2023-07-13T00:36:56;1.27;;;1.27;;
18336;SDS011;9294;51.106;7.028;2023-07-13T00:39:24;1.15;;;1.15;;
18336;SDS011;9294;51.106;7.028;2023-07-13T00:41:52;1.27;;;1.27;;
18336;SDS011;9294;51.106;7.028;2023-07-13T00:44:19;1.60;;;1.55;;
18336;SDS011;9294;51.106;7.028;2023-07-13T00:46:48;1.75;;;1.65;;
18336;SDS011;9294;51.106;7.028;2023-07-13T00:49:16;1.42;;;1.42;;
18336;SDS011;9294;51.106;7.028;2023-07-13T00:51:45;1.52;;;1.30;;
18336;SDS011;9294;51.106;7.028;2023-07-13T00:54:14;2.30;;;1.25;;
18336;SDS011;9294;51.106;7.028;2023-07-13T00:56:43;1.20;;;1.20;;
18336;SDS011;9294;51.106;7.028;2023-07-13T00:59:12;1.10;;;1.10;;
18336;SDS011;9294;51.106;7.028;2023-07-13T01:01:40;2.55;;;1.30;;
18336;SDS011;9294;51.106;7.028;2023-07-13T01:04:07;1.30;;;1.30;;
18336;SDS011;9294;51.106;7.028;2023-07-13T01:06:34;2.67;;;1.52;;
18336;SDS011;9294;51.106;7.028;2023-07-13T01:09:01;1.10;;;1.10;;
18336;SDS011;9294;51.106;7.028;2023-07-13T01:11:28;1.38;;;1.30;;
18336;SDS011;9294;51.106;7.028;2023-07-13T01:13:57;1.30;;;1.20;;
18336;SDS011;9294;51.106;7.028;2023-07-13T01:16:27;2.63;;;1.58;;
18336;SDS011;9294;51.106;7.028;2023-07-13T01:18:54;1.35;;;1.35;;
18336;SDS011;9294;51.106;7.028;2023-07-13T01:21:25;1.27;;;1.27;;
18336;SDS011;9294;51.106;7.028;2023-07-13T01:23:52;1.02;;;1.02;;
18336;SDS011;9294;51.106;7.028;2023-07-13T01:26:20;1.65;;;1.55;;
18336;SDS011;9294;51.106;7.028;2023-07-13T01:28:47;1.27;;;1.27;;
18336;SDS011;9294;51.106;7.028;2023-07-13T01:31:14;1.23;;;1.23;;
18336;SDS011;9294;51.106;7.028;2023-07-13T01:33:41;1.13;;;1.02;;
18336;SDS011;9294;51.106;7.028;2023-07-13T01:36:09;1.38;;;1.38;;
18336;SDS011;9294;51.106;7.028;2023-07-13T01:38:40;1.25;;;1.20;;
18336;SDS011;9294;51.106;7.028;2023-07-13T01:41:07;1.52;;;1.42;;
18336;SDS011;9294;51.106;7.028;2023-07-13T01:43:34;1.00;;;0.90;;
18336;SDS011;9294;51.106;7.028;2023-07-13T01:46:01;1.42;;;1.33;;
18336;SDS011;9294;51.106;7.028;2023-07-13T01:48:28;1.42;;;1.42;;
18336;SDS011;9294;51.106;7.028;2023-07-13T01:50:55;1.42;;;1.33;;
18336;SDS011;9294;51.106;7.028;2023-07-13T01:53:22;1.70;;;1.60;;
18336;SDS011;9294;51.106;7.028;2023-07-13T01:55:50;1.50;;;1.50;;
18336;SDS011;9294;51.106;7.028;2023-07-13T01:58:17;1.95;;;1.85;;
18336;SDS011;9294;51.106;7.028;2023-07-13T02:00:47;1.27;;;1.27;;
18336;SDS011;9294;51.106;7.028;2023-07-13T02:03:14;1.30;;;1.30;;
18336;SDS011;9294;51.106;7.028;2023-07-13T02:05:43;1.42;;;1.33;;
18336;SDS011;9294;51.106;7.028;2023-07-13T02:08:10;1.55;;;1.55;;
18336;SDS011;9294;51.106;7.028;2023-07-13T02:10:37;1.67;;;1.58;;
18336;SDS011;9294;51.106;7.028;2023-07-13T02:13:06;1.27;;;1.20;;
18336;SDS011;9294;51.106;7.028;2023-07-13T02:15:33;1.17;;;1.08;;
18336;SDS011;9294;51.106;7.028;2023-07-13T02:18:00;1.38;;;1.27;;
18336;SDS011;9294;51.106;7.028;2023-07-13T02:20:28;1.65;;;1.55;;
18336;SDS011;9294;51.106;7.028;2023-07-13T02:22:55;1.50;;;1.40;;
18336;SDS011;9294;51.106;7.028;2023-07-13T02:25:22;1.08;;;1.08;;
18336;SDS011;9294;51.106;7.028;2023-07-13T02:27:50;1.52;;;1.42;;
18336;SDS011;9294;51.106;7.028;2023-07-13T02:30:18;1.30;;;1.23;;
18336;SDS011;9294;51.106;7.028;2023-07-13T02:32:45;1.30;;;1.20;;
18336;SDS011;9294;51.106;7.028;2023-07-13T02:35:12;1.17;;;1.17;;
18336;SDS011;9294;51.106;7.028;2023-07-13T02:37:39;1.38;;;1.27;;
18336;SDS011;9294;51.106;7.028;2023-07-13T02:40:07;1.25;;;1.25;;
18336;SDS011;9294;51.106;7.028;2023-07-13T02:42:34;2.00;;;1.20;;
18336;SDS011;9294;51.106;7.028;2023-07-13T02:45:02;2.78;;;1.50;;
18336;SDS011;9294;51.106;7.028;2023-07-13T02:47:31;1.45;;;1.35;;
18336;SDS011;9294;51.106;7.028;2023-07-13T02:49:58;1.55;;;1.40;;
18336;SDS011;9294;51.106;7.028;2023-07-13T02:52:26;1.83;;;1.73;;
18336;SDS011;9294;51.106;7.028;2023-07-13T02:54:53;1.10;;;1.10;;
18336;SDS011;9294;51.106;7.028;2023-07-13T02:57:20;1.38;;;1.23;;
18336;SDS011;9294;51.106;7.028;2023-07-13T02:59:47;1.40;;;1.30;;
18336;SDS011;9294;51.106;7.028;2023-07-13T03:02:14;1.17;;;1.10;;
18336;SDS011;9294;51.106;7.028;2023-07-13T03:04:43;1.50;;;1.40;;
18336;SDS011;9294;51.106;7.028;2023-07-13T03:07:10;1.13;;;1.13;;
18336;SDS011;9294;51.106;7.028;2023-07-13T03:09:39;1.05;;;1.05;;
18336;SDS011;9294;51.106;7.028;2023-07-13T03:12:06;1.30;;;1.20;;
18336;SDS011;9294;51.106;7.028;2023-07-13T03:14:33;1.33;;;1.30;;
18336;SDS011;9294;51.106;7.028;2023-07-13T03:17:01;1.15;;;1.10;;
18336;SDS011;9294;51.106;7.028;2023-07-13T03:19:28;1.48;;;1.38;;
18336;SDS011;9294;51.106;7.028;2023-07-13T03:21:56;1.50;;;1.40;;
18336;SDS011;9294;51.106;7.028;2023-07-13T03:24:23;1.35;;;1.25;;
18336;SDS011;9294;51.106;7.028;2023-07-13T03:26:50;1.27;;;1.27;;
18336;SDS011;9294;51.106;7.028;2023-07-13T03:29:17;1.40;;;1.30;;
18336;SDS011;9294;51.106;7.028;2023-07-13T03:31:45;1.42;;;1.33;;
18336;SDS011;9294;51.106;7.028;2023-07-13T03:34:12;1.20;;;1.20;;
18336;SDS011;9294;51.106;7.028;2023-07-13T03:36:39;1.00;;;1.00;;
18336;SDS011;9294;51.106;7.028;2023-07-13T03:39:08;0.90;;;0.90;;
18336;SDS011;9294;51.106;7.028;2023-07-13T03:41:35;1.33;;;1.23;;
18336;SDS011;9294;51.106;7.028;2023-07-13T03:44:02;1.17;;;1.17;;
18336;SDS011;9294;51.106;7.028;2023-07-13T03:46:29;1.65;;;1.55;;
18336;SDS011;9294;51.106;7.028;2023-07-13T03:48:56;1.00;;;1.00;;
18336;SDS011;9294;51.106;7.028;2023-07-13T03:51:23;1.33;;;1.33;;
18336;SDS011;9294;51.106;7.028;2023-07-13T03:53:50;0.88;;;0.88;;
18336;SDS011;9294;51.106;7.028;2023-07-13T03:56:19;1.00;;;1.00;;
18336;SDS011;9294;51.106;7.028;2023-07-13T03:58:47;1.13;;;1.13;;
18336;SDS011;9294;51.106;7.028;2023-07-13T04:01:15;1.23;;;1.17;;
18336;SDS011;9294;51.106;7.028;2023-07-13T04:03:42;1.15;;;1.15;;
18336;SDS011;9294;51.106;7.028;2023-07-13T04:06:13;1.55;;;1.45;;
18336;SDS011;9294;51.106;7.028;2023-07-13T04:08:46;1.45;;;1.45;;
18336;SDS011;9294;51.106;7.028;2023-07-13T04:11:14;1.40;;;1.30;;
18336;SDS011;9294;51.106;7.028;2023-07-13T04:13:42;1.50;;;1.30;;
18336;SDS011;9294;51.106;7.028;2023-07-13T04:16:09;1.48;;;1.38;;
18336;SDS011;9294;51.106;7.028;2023-07-13T04:18:36;1.08;;;1.08;;
18336;SDS011;9294;51.106;7.028;2023-07-13T04:21:03;1.55;;;1.20;;
18336;SDS011;9294;51.106;7.028;2023-07-13T04:23:30;1.05;;;1.02;;
18336;SDS011;9294;51.106;7.028;2023-07-13T04:25:57;1.42;;;1.33;;
18336;SDS011;9294;51.106;7.028;2023-07-13T04:28:25;1.00;;;1.00;;
18336;SDS011;9294;51.106;7.028;2023-07-13T04:30:53;0.80;;;0.80;;
18336;SDS011;9294;51.106;7.028;2023-07-13T04:33:21;1.20;;;1.20;;
18336;SDS011;9294;51.106;7.028;2023-07-13T04:35:48;1.10;;;1.10;;
18336;SDS011;9294;51.106;7.028;2023-07-13T04:38:21;1.42;;;1.33;;
18336;SDS011;9294;51.106;7.028;2023-07-13T04:40:49;1.13;;;1.02;;
18336;SDS011;9294;51.106;7.028;2023-07-13T04:43:16;1.42;;;1.33;;
18336;SDS011;9294;51.106;7.028;2023-07-13T04:45:43;1.23;;;1.10;;
18336;SDS011;9294;51.106;7.028;2023-07-13T04:48:11;1.23;;;1.13;;
18336;SDS011;9294;51.106;7.028;2023-07-13T04:50:39;1.40;;;1.30;;
18336;SDS011;9294;51.106;7.028;2023-07-13T04:53:06;1.27;;;1.25;;
18336;SDS011;9294;51.106;7.028;2023-07-13T04:55:33;1.00;;;1.00;;
18336;SDS011;9294;51.106;7.028;2023-07-13T04:58:00;1.20;;;1.20;;
18336;SDS011;9294;51.106;7.028;2023-07-13T05:00:28;1.20;;;1.20;;
18336;SDS011;9294;51.106;7.028;2023-07-13T05:02:55;1.00;;;1.00;;
18336;SDS011;9294;51.106;7.028;2023-07-13T05:05:24;1.00;;;1.00;;
18336;SDS011;9294;51.106;7.028;2023-07-13T05:07:50;0.73;;;0.73;;
18336;SDS011;9294;51.106;7.028;2023-07-13T05:10:17;1.40;;;1.30;;
18336;SDS011;9294;51.106;7.028;2023-07-13T05:12:45;1.13;;;1.10;;
18336;SDS011;9294;51.106;7.028;2023-07-13T05:15:12;1.33;;;1.23;;
18336;SDS011;9294;51.106;7.028;2023-07-13T05:17:39;1.90;;;1.17;;
18336;SDS011;9294;51.106;7.028;2023-07-13T05:20:06;1.35;;;1.25;;
18336;SDS011;9294;51.106;7.028;2023-07-13T05:22:35;1.73;;;1.60;;
18336;SDS011;9294;51.106;7.028;2023-07-13T05:25:04;1.02;;;1.02;;
18336;SDS011;9294;51.106;7.028;2023-07-13T05:27:31;1.15;;;1.15;;
18336;SDS011;9294;51.106;7.028;2023-07-13T05:29:58;1.20;;;1.20;;
18336;SDS011;9294;51.106;7.028;2023-07-13T05:32:25;1.10;;;1.10;;
18336;SDS011;9294;51.106;7.028;2023-07-13T05:34:52;1.30;;;1.20;;
18336;SDS011;9294;51.106;7.028;2023-07-13T05:37:19;1.00;;;1.00;;
18336;SDS011;9294;51.106;7.028;2023-07-13T05:39:48;0.98;;;0.98;;
18336;SDS011;9294;51.106;7.028;2023-07-13T05:42:15;1.15;;;1.08;;
18336;SDS011;9294;51.106;7.028;2023-07-13T05:44:42;1.20;;;1.20;;
18336;SDS011;9294;51.106;7.028;2023-07-13T05:47:09;1.33;;;1.23;;
18336;SDS011;9294;51.106;7.028;2023-07-13T05:49:36;1.45;;;1.20;;
18336;SDS011;9294;51.106;7.028;2023-07-13T05:52:04;1.83;;;1.30;;
18336;SDS011;9294;51.106;7.028;2023-07-13T05:54:31;1.13;;;1.10;;
18336;SDS011;9294;51.106;7.028;2023-07-13T05:56:59;1.10;;;0.98;;
18336;SDS011;9294;51.106;7.028;2023-07-13T05:59:26;1.75;;;1.33;;
18336;SDS011;9294;51.106;7.028;2023-07-13T06:01:53;1.88;;;1.42;;
18336;SDS011;9294;51.106;7.028;2023-07-13T06:04:20;1.33;;;1.30;;
18336;SDS011;9294;51.106;7.028;2023-07-13T06:06:47;3.15;;;1.27;;
18336;SDS011;9294;51.106;7.028;2023-07-13T06:09:14;1.48;;;1.38;;
18336;SDS011;9294;51.106;7.028;2023-07-13T06:11:41;2.05;;;1.58;;
18336;SDS011;9294;51.106;7.028;2023-07-13T06:14:10;4.88;;;1.92;;
18336;SDS011;9294;51.106;7.028;2023-07-13T06:16:37;1.77;;;1.65;;
18336;SDS011;9294;51.106;7.028;2023-07-13T06:19:04;1.40;;;1.33;;
18336;SDS011;9294;51.106;7.028;2023-07-13T06:21:31;2.80;;;2.00;;
18336;SDS011;9294;51.106;7.028;2023-07-13T06:23:58;3.08;;;1.83;;
18336;SDS011;9294;51.106;7.028;2023-07-13T06:26:25;1.98;;;1.50;;
18336;SDS011;9294;51.106;7.028;2023-07-13T06:28:53;4.00;;;1.67;;
18336;SDS011;9294;51.106;7.028;2023-07-13T06:31:21;4.88;;;1.95;;
18336;SDS011;9294;51.106;7.028;2023-07-13T06:33:48;3.20;;;1.60;;
18336;SDS011;9294;51.106;7.028;2023-07-13T06:36:15;2.92;;;1.80;;
18336;SDS011;9294;51.106;7.028;2023-07-13T06:38:42;2.67;;;1.95;;
18336;SDS011;9294;51.106;7.028;2023-07-13T06:41:09;2.72;;;1.65;;
18336;SDS011;9294;51.106;7.028;2023-07-13T06:43:36;2.33;;;1.90;;
18336;SDS011;9294;51.106;7.028;2023-07-13T06:46:03;2.40;;;1.63;;
18336;SDS011;9294;51.106;7.028;2023-07-13T06:48:32;5.40;;;1.77;;
18336;SDS011;9294;51.106;7.028;2023-07-13T06:50:59;2.38;;;1.98;;
18336;SDS011;9294;51.106;7.028;2023-07-13T06:53:27;3.78;;;2.10;;
18336;SDS011;9294;51.106;7.028;2023-07-13T06:55:54;6.45;;;2.97;;
18336;SDS011;9294;51.106;7.028;2023-07-13T06:58:21;3.35;;;2.15;;
18336;SDS011;9294;51.106;7.028;2023-07-13T07:00:49;3.13;;;1.90;;
18336;SDS011;9294;51.106;7.028;2023-07-13T07:03:17;3.75;;;2.22;;
18336;SDS011;9294;51.106;7.028;2023-07-13T07:05:46;7.55;;;2.78;;
18336;SDS011;9294;51.106;7.028;2023-07-13T08:16:27;5.20;;;2.63;;
18336;SDS011;9294;51.106;7.028;2023-07-13T08:18:54;5.65;;;3.15;;
18336;SDS011;9294;51.106;7.028;2023-07-13T08:21:21;7.70;;;3.92;;
18336;SDS011;9294;51.106;7.028;2023-07-13T08:23:48;5.50;;;3.17;;
18336;SDS011;9294;51.106;7.028;2023-07-13T08:26:15;5.78;;;3.20;;
18336;SDS011;9294;51.106;7.028;2023-07-13T08:28:42;5.45;;;3.47;;
18336;SDS011;9294;51.106;7.028;2023-07-13T08:31:09;5.85;;;3.75;;
18336;SDS011;9294;51.106;7.028;2023-07-13T08:33:38;9.18;;;3.25;;
18336;SDS011;9294;51.106;7.028;2023-07-13T08:36:06;6.80;;;3.55;;
18336;SDS011;9294;51.106;7.028;2023-07-13T08:38:33;15.05;;;4.80;;
18336;SDS011;9294;51.106;7.028;2023-07-13T08:41:02;12.73;;;4.72;;
18336;SDS011;9294;51.106;7.028;2023-07-13T08:43:36;5.97;;;3.75;;
18336;SDS011;9294;51.106;7.028;2023-07-13T08:46:05;14.88;;;4.72;;
18336;SDS011;9294;51.106;7.028;2023-07-13T08:48:35;10.63;;;3.60;;
18336;SDS011;9294;51.106;7.028;2023-07-13T08:51:10;5.50;;;3.40;;
18336;SDS011;9294;51.106;7.028;2023-07-13T08:53:40;9.73;;;4.10;;
18336;SDS011;9294;51.106;7.028;2023-07-13T08:56:11;6.13;;;4.03;;
18336;SDS011;9294;51.106;7.028;2023-07-13T08:58:39;8.88;;;3.33;;
18336;SDS011;9294;51.106;7.028;2023-07-13T09:01:10;8.35;;;4.10;;
18336;SDS011;9294;51.106;7.028;2023-07-13T09:03:42;6.05;;;3.55;;
18336;SDS011;9294;51.106;7.028;2023-07-13T09:06:14;16.52;;;3.63;;
18336;SDS011;9294;51.106;7.028;2023-07-13T09:08:45;9.50;;;4.28;;
18336;SDS011;9294;51.106;7.028;2023-07-13T09:11:16;6.63;;;4.60;;
18336;SDS011;9294;51.106;7.028;2023-07-13T09:13:46;8.85;;;4.07;;
18336;SDS011;9294;51.106;7.028;2023-07-13T09:16:15;9.52;;;3.65;;
18336;SDS011;9294;51.106;7.028;2023-07-13T09:18:43;6.10;;;3.63;;
18336;SDS011;9294;51.106;7.028;2023-07-13T09:21:12;6.78;;;4.25;;
18336;SDS011;9294;51.106;7.028;2023-07-13T09:23:41;4.13;;;3.25;;
18336;SDS011;9294;51.106;7.028;2023-07-13T09:26:11;5.32;;;3.50;;
18336;SDS011;9294;51.106;7.028;2023-07-13T09:28:40;6.47;;;3.30;;
18336;SDS011;9294;51.106;7.028;2023-07-13T09:31:09;4.45;;;3.20;;
18336;SDS011;9294;51.106;7.028;2023-07-13T09:33:38;5.07;;;3.25;;
18336;SDS011;9294;51.106;7.028;2023-07-13T09:36:15;6.70;;;4.00;;
18336;SDS011;9294;51.106;7.028;2023-07-13T09:38:45;3.63;;;3.15;;
18336;SDS011;9294;51.106;7.028;2023-07-13T09:41:15;5.45;;;3.50;;
18336;SDS011;9294;51.106;7.028;2023-07-13T09:44:02;7.93;;;3.63;;
18336;SDS011;9294;51.106;7.028;2023-07-13T09:46:29;4.55;;;3.40;;
18336;SDS011;9294;51.106;7.028;2023-07-13T09:48:56;5.00;;;3.33;;
18336;SDS011;9294;51.106;7.028;2023-07-13T09:51:23;3.78;;;3.40;;
18336;SDS011;9294;51.106;7.028;2023-07-13T09:53:51;7.72;;;3.58;;
18336;SDS011;9294;51.106;7.028;2023-07-13T09:56:20;4.47;;;3.13;;
18336;SDS011;9294;51.106;7.028;2023-07-13T09:58:47;5.97;;;3.60;;
18336;SDS011;9294;51.106;7.028;2023-07-13T10:01:14;4.88;;;3.03;;
18336;SDS011;9294;51.106;7.028;2023-07-13T10:03:51;5.07;;;3.17;;
18336;SDS011;9294;51.106;7.028;2023-07-13T10:06:20;6.93;;;3.05;;
18336;SDS011;9294;51.106;7.028;2023-07-13T10:08:47;4.68;;;3.58;;
18336;SDS011;9294;51.106;7.028;2023-07-13T10:11:18;7.90;;;3.40;;
18336;SDS011;9294;51.106;7.028;2023-07-13T10:13:48;7.07;;;3.67;;
18336;SDS011;9294;51.106;7.028;2023-07-13T10:16:17;4.60;;;2.72;;
18336;SDS011;9294;51.106;7.028;2023-07-13T10:18:45;5.28;;;2.88;;
18336;SDS011;9294;51.106;7.028;2023-07-13T10:21:15;6.05;;;3.38;;
18336;SDS011;9294;51.106;7.028;2023-07-13T10:23:42;6.00;;;3.25;;
18336;SDS011;9294;51.106;7.028;2023-07-13T10:26:12;6.28;;;3.65;;
18336;SDS011;9294;51.106;7.028;2023-07-13T10:28:41;7.72;;;2.95;;
18336;SDS011;9294;51.106;7.028;2023-07-13T10:31:11;9.85;;;3.53;;
18336;SDS011;9294;51.106;7.028;2023-07-13T10:33:39;5.65;;;2.95;;
18336;SDS011;9294;51.106;7.028;2023-07-13T10:36:11;7.40;;;4.55;;
18336;SDS011;9294;51.106;7.028;2023-07-13T10:38:40;8.00;;;5.43;;
18336;SDS011;9294;51.106;7.028;2023-07-13T10:41:08;10.98;;;7.13;;
18336;SDS011;9294;51.106;7.028;2023-07-13T10:43:39;16.08;;;9.48;;
18336;SDS011;9294;51.106;7.028;2023-07-13T10:46:08;14.38;;;9.35;;
18336;SDS011;9294;51.106;7.028;2023-07-13T10:48:36;16.98;;;9.73;;
18336;SDS011;9294;51.106;7.028;2023-07-13T10:51:06;13.48;;;8.65;;
18336;SDS011;9294;51.106;7.028;2023-07-13T10:53:34;12.60;;;7.22;;
18336;SDS011;9294;51.106;7.028;2023-07-13T10:56:02;13.27;;;8.05;;
18336;SDS011;9294;51.106;7.028;2023-07-13T10:58:34;12.57;;;7.55;;
18336;SDS011;9294;51.106;7.028;2023-07-13T11:01:08;11.55;;;6.90;;
18336;SDS011;9294;51.106;7.028;2023-07-13T11:03:36;9.88;;;6.72;;
18336;SDS011;9294;51.106;7.028;2023-07-13T11:06:05;10.48;;;5.93;;
18336;SDS011;9294;51.106;7.028;2023-07-13T11:08:35;11.38;;;6.25;;
18336;SDS011;9294;51.106;7.028;2023-07-13T11:11:03;7.03;;;5.45;;
18336;SDS011;9294;51.106;7.028;2023-07-13T11:13:37;11.00;;;5.50;;
18336;SDS011;9294;51.106;7.028;2023-07-13T11:16:26;11.23;;;5.47;;
18336;SDS011;9294;51.106;7.028;2023-07-13T11:19:08;7.03;;;4.60;;
18336;SDS011;9294;51.106;7.028;2023-07-13T11:22:10;7.20;;;4.55;;
18336;SDS011;9294;51.106;7.028;2023-07-13T11:24:50;8.73;;;4.95;;
18336;SDS011;9294;51.106;7.028;2023-07-13T11:27:22;5.95;;;3.95;;
18336;SDS011;9294;51.106;7.028;2023-07-13T11:29:49;8.93;;;4.22;;
18336;SDS011;9294;51.106;7.028;2023-07-13T11:32:23;5.82;;;4.32;;
18336;SDS011;9294;51.106;7.028;2023-07-13T11:34:51;7.90;;;3.55;;
18336;SDS011;9294;51.106;7.028;2023-07-13T11:37:20;3.70;;;3.45;;
18336;SDS011;9294;51.106;7.028;2023-07-13T11:39:48;4.35;;;3.95;;
18336;SDS011;9294;51.106;7.028;2023-07-13T11:42:18;11.05;;;3.83;;
18336;SDS011;9294;51.106;7.028;2023-07-13T11:44:46;5.35;;;4.22;;
18336;SDS011;9294;51.106;7.028;2023-07-13T11:47:14;6.28;;;3.90;;
18336;SDS011;9294;51.106;7.028;2023-07-13T11:49:48;9.10;;;3.83;;
18336;SDS011;9294;51.106;7.028;2023-07-13T11:52:17;6.03;;;3.25;;
18336;SDS011;9294;51.106;7.028;2023-07-13T11:54:46;6.25;;;3.28;;
18336;SDS011;9294;51.106;7.028;2023-07-13T11:57:21;5.97;;;3.22;;
18336;SDS011;9294;51.106;7.028;2023-07-13T11:59:50;6.38;;;3.10;;
18336;SDS011;9294;51.106;7.028;2023-07-13T12:02:28;5.05;;;2.90;;
18336;SDS011;9294;51.106;7.028;2023-07-13T12:04:57;6.32;;;3.28;;
18336;SDS011;9294;51.106;7.028;2023-07-13T12:07:24;3.83;;;3.03;;
18336;SDS011;9294;51.106;7.028;2023-07-13T12:09:59;5.55;;;3.08;;
18336;SDS011;9294;51.106;7.028;2023-07-13T12:12:28;3.55;;;3.05;;
18336;SDS011;9294;51.106;7.028;2023-07-13T12:14:55;5.28;;;3.13;;
18336;SDS011;9294;51.106;7.028;2023-07-13T12:17:23;4.13;;;2.40;;
18336;SDS011;9294;51.106;7.028;2023-07-13T12:19:51;4.03;;;2.97;;
18336;SDS011;9294;51.106;7.028;2023-07-13T12:22:20;8.35;;;3.10;;
18336;SDS011;9294;51.106;7.028;2023-07-13T12:24:48;5.45;;;3.15;;
18336;SDS011;9294;51.106;7.028;2023-07-13T12:27:18;8.05;;;3.03;;
18336;SDS011;9294;51.106;7.028;2023-07-13T12:29:49;6.07;;;3.38;;
18336;SDS011;9294;51.106;7.028;2023-07-13T12:32:18;4.53;;;2.72;;
18336;SDS011;9294;51.106;7.028;2023-07-13T12:34:52;3.50;;;3.08;;
18336;SDS011;9294;51.106;7.028;2023-07-13T12:37:21;5.55;;;3.20;;
18336;SDS011;9294;51.106;7.028;2023-07-13T12:39:48;4.75;;;2.50;;
18336;SDS011;9294;51.106;7.028;2023-07-13T12:42:18;4.57;;;2.45;;
18336;SDS011;9294;51.106;7.028;2023-07-13T12:44:48;5.10;;;2.63;;
18336;SDS011;9294;51.106;7.028;2023-07-13T12:47:16;7.25;;;2.80;;
18336;SDS011;9294;51.106;7.028;2023-07-13T12:49:49;5.47;;;2.80;;
18336;SDS011;9294;51.106;7.028;2023-07-13T12:52:17;3.28;;;2.20;;
18336;SDS011;9294;51.106;7.028;2023-07-13T12:54:53;2.78;;;2.33;;
18336;SDS011;9294;51.106;7.028;2023-07-13T12:57:22;4.85;;;2.88;;
18336;SDS011;9294;51.106;7.028;2023-07-13T12:59:51;7.68;;;3.10;;
18336;SDS011;9294;51.106;7.028;2023-07-13T13:02:21;3.47;;;2.47;;
18336;SDS011;9294;51.106;7.028;2023-07-13T13:04:49;5.35;;;2.92;;
18336;SDS011;9294;51.106;7.028;2023-07-13T13:07:16;2.97;;;2.65;;
18336;SDS011;9294;51.106;7.028;2023-07-13T13:09:45;3.17;;;2.33;;
18336;SDS011;9294;51.106;7.028;2023-07-13T13:12:13;1.95;;;1.80;;
18336;SDS011;9294;51.106;7.028;2023-07-13T13:14:42;8.55;;;3.08;;
18336;SDS011;9294;51.106;7.028;2023-07-13T13:17:14;7.05;;;3.03;;
18336;SDS011;9294;51.106;7.028;2023-07-13T13:19:44;4.03;;;2.83;;
18336;SDS011;9294;51.106;7.028;2023-07-13T13:22:11;4.65;;;2.58;;
18336;SDS011;9294;51.106;7.028;2023-07-13T13:24:38;4.07;;;2.45;;
18336;SDS011;9294;51.106;7.028;2023-07-13T13:27:08;2.92;;;2.20;;
18336;SDS011;9294;51.106;7.028;2023-07-13T13:29:42;10.18;;;3.10;;
18336;SDS011;9294;51.106;7.028;2023-07-13T13:32:09;11.43;;;3.25;;
18336;SDS011;9294;51.106;7.028;2023-07-13T13:34:38;5.25;;;2.10;;
18336;SDS011;9294;51.106;7.028;2023-07-13T13:37:08;3.58;;;2.67;;
18336;SDS011;9294;51.106;7.028;2023-07-13T13:39:43;8.05;;;2.75;;
18336;SDS011;9294;51.106;7.028;2023-07-13T13:42:11;6.32;;;2.53;;
18336;SDS011;9294;51.106;7.028;2023-07-13T13:44:38;9.88;;;3.05;;
18336;SDS011;9294;51.106;7.028;2023-07-13T13:47:09;7.40;;;2.92;;
18336;SDS011;9294;51.106;7.028;2023-07-13T13:49:44;6.57;;;2.47;;
18336;SDS011;9294;51.106;7.028;2023-07-13T13:52:12;3.58;;;2.60;;
18336;SDS011;9294;51.106;7.028;2023-07-13T13:54:40;3.90;;;2.17;;
18336;SDS011;9294;51.106;7.028;2023-07-13T13:57:08;3.83;;;2.20;;
18336;SDS011;9294;51.106;7.028;2023-07-13T13:59:37;5.13;;;2.30;;
18336;SDS011;9294;51.106;7.028;2023-07-13T14:02:08;4.43;;;2.30;;
18336;SDS011;9294;51.106;7.028;2023-07-13T14:04:38;5.78;;;2.22;;
18336;SDS011;9294;51.106;7.028;2023-07-13T14:07:05;5.20;;;2.50;;
18336;SDS011;9294;51.106;7.028;2023-07-13T14:09:32;2.95;;;1.95;;
18336;SDS011;9294;51.106;7.028;2023-07-13T14:11:59;3.47;;;2.28;;
18336;SDS011;9294;51.106;7.028;2023-07-13T14:14:27;3.47;;;2.50;;
18336;SDS011;9294;51.106;7.028;2023-07-13T14:16:55;2.28;;;2.10;;
18336;SDS011;9294;51.106;7.028;2023-07-13T14:19:23;2.40;;;2.08;;
18336;SDS011;9294;51.106;7.028;2023-07-13T14:21:51;2.72;;;2.53;;
18336;SDS011;9294;51.106;7.028;2023-07-13T14:24:18;4.25;;;2.45;;
18336;SDS011;9294;51.106;7.028;2023-07-13T14:26:46;4.10;;;1.90;;
18336;SDS011;9294;51.106;7.028;2023-07-13T14:29:14;3.22;;;2.42;;
18336;SDS011;9294;51.106;7.028;2023-07-13T14:31:42;6.22;;;2.70;;
18336;SDS011;9294;51.106;7.028;2023-07-13T14:34:09;2.45;;;2.20;;
18336;SDS011;9294;51.106;7.028;2023-07-13T14:36:39;2.30;;;2.10;;
18336;SDS011;9294;51.106;7.028;2023-07-13T14:39:11;2.70;;;2.05;;
18336;SDS011;9294;51.106;7.028;2023-07-13T14:41:38;2.10;;;1.90;;
18336;SDS011;9294;51.106;7.028;2023-07-13T14:44:08;2.17;;;2.03;;
18336;SDS011;9294;51.106;7.028;2023-07-13T14:46:37;3.50;;;2.15;;
18336;SDS011;9294;51.106;7.028;2023-07-13T14:49:05;2.65;;;2.10;;
18336;SDS011;9294;51.106;7.028;2023-07-13T14:51:33;3.50;;;2.13;;
18336;SDS011;9294;51.106;7.028;2023-07-13T14:54:04;4.25;;;2.08;;
18336;SDS011;9294;51.106;7.028;2023-07-13T14:56:31;5.88;;;2.35;;
18336;SDS011;9294;51.106;7.028;2023-07-13T14:58:58;2.70;;;2.00;;
18336;SDS011;9294;51.106;7.028;2023-07-13T15:01:25;3.50;;;2.40;;
18336;SDS011;9294;51.106;7.028;2023-07-13T15:03:53;3.22;;;2.40;;
18336;SDS011;9294;51.106;7.028;2023-07-13T15:06:20;5.20;;;2.15;;
18336;SDS011;9294;51.106;7.028;2023-07-13T15:08:47;7.93;;;2.08;;
18336;SDS011;9294;51.106;7.028;2023-07-13T15:11:16;3.65;;;2.38;;
18336;SDS011;9294;51.106;7.028;2023-07-13T15:13:43;1.90;;;1.80;;
18336;SDS011;9294;51.106;7.028;2023-07-13T15:16:14;7.70;;;1.88;;
18336;SDS011;9294;51.106;7.028;2023-07-13T15:18:42;2.13;;;1.92;;
18336;SDS011;9294;51.106;7.028;2023-07-13T15:21:09;2.28;;;1.95;;
18336;SDS011;9294;51.106;7.028;2023-07-13T15:23:38;3.92;;;2.08;;
18336;SDS011;9294;51.106;7.028;2023-07-13T15:26:07;2.20;;;1.80;;
18336;SDS011;9294;51.106;7.028;2023-07-13T15:28:35;2.30;;;2.20;;
18336;SDS011;9294;51.106;7.028;2023-07-13T15:31:05;2.20;;;2.00;;
18336;SDS011;9294;51.106;7.028;2023-07-13T15:33:43;2.42;;;1.85;;
18336;SDS011;9294;51.106;7.028;2023-07-13T15:36:13;2.63;;;1.85;;
18336;SDS011;9294;51.106;7.028;2023-07-13T15:38:40;2.40;;;1.90;;
18336;SDS011;9294;51.106;7.028;2023-07-13T15:41:10;9.15;;;2.03;;
18336;SDS011;9294;51.106;7.028;2023-07-13T15:43:42;2.58;;;2.05;;
18336;SDS011;9294;51.106;7.028;2023-07-13T15:46:10;3.78;;;1.90;;
18336;SDS011;9294;51.106;7.028;2023-07-13T15:48:37;2.60;;;2.20;;
18336;SDS011;9294;51.106;7.028;2023-07-13T15:51:04;2.22;;;1.92;;
18336;SDS011;9294;51.106;7.028;2023-07-13T15:53:32;3.22;;;2.25;;
18336;SDS011;9294;51.106;7.028;2023-07-13T15:56:01;3.97;;;2.17;;
18336;SDS011;9294;51.106;7.028;2023-07-13T15:58:28;4.10;;;2.30;;
18336;SDS011;9294;51.106;7.028;2023-07-13T16:00:57;3.08;;;2.10;;
18336;SDS011;9294;51.106;7.028;2023-07-13T16:03:24;3.40;;;2.03;;
18336;SDS011;9294;51.106;7.028;2023-07-13T16:05:51;2.10;;;1.92;;
18336;SDS011;9294;51.106;7.028;2023-07-13T16:08:20;3.58;;;2.58;;
18336;SDS011;9294;51.106;7.028;2023-07-13T16:10:49;3.13;;;2.25;;
18336;SDS011;9294;51.106;7.028;2023-07-13T16:13:16;2.25;;;2.03;;
18336;SDS011;9294;51.106;7.028;2023-07-13T16:15:45;3.80;;;2.30;;
18336;SDS011;9294;51.106;7.028;2023-07-13T16:18:14;5.45;;;2.50;;